UTA139 USRR-UNOO
Flight info
| Callsign | UTA139 |
|---|---|
| Flight time | N/A |
| Altitude | 25000 |
| Route | BASAK1E BASAK R706 GIMAS/K0778F350 N990 ML/K0782F360 N990 POGIR POGIR5E |
| Aircraft | B735/M-SDFHIW/S |
Departure
| Time | 2026-04-21 13:49 |
|---|---|
| Airport | Surgut International Airport (USRR) |
Arrival
| Time | N/A |
|---|---|
| Airport | Omsk Central Airport (UNOO) |
| Time | Latitude | Longitude | Altitude | Speed | Heading |
|---|---|---|---|---|---|
| 2026-04-21 13:23 | 61.34131 | 73.40014 | 208 ft | 0 kts | 360° |
| 2026-04-21 13:44 | 61.34139 | 73.40014 | 216 ft | 4 kts | 360° |
| 2026-04-21 13:45 | 61.34169 | 73.40003 | 214 ft | 3 kts | 330° |
| 2026-04-21 13:45 | 61.34178 | 73.39947 | 208 ft | 5 kts | 271° |
| 2026-04-21 13:45 | 61.34178 | 73.39858 | 208 ft | 8 kts | 270° |
| 2026-04-21 13:45 | 61.34178 | 73.39720 | 208 ft | 10 kts | 269° |
| 2026-04-21 13:46 | 61.34177 | 73.39566 | 207 ft | 11 kts | 270° |
| 2026-04-21 13:46 | 61.34177 | 73.39401 | 207 ft | 12 kts | 270° |
| 2026-04-21 13:46 | 61.34176 | 73.39232 | 209 ft | 12 kts | 269° |
| 2026-04-21 13:46 | 61.34175 | 73.39061 | 214 ft | 12 kts | 269° |
| 2026-04-21 13:47 | 61.34187 | 73.38918 | 211 ft | 9 kts | 315° |
| 2026-04-21 13:47 | 61.34245 | 73.38901 | 210 ft | 9 kts | 359° |
| 2026-04-21 13:47 | 61.34282 | 73.38901 | 210 ft | 6 kts | 360° |
| 2026-04-21 13:47 | 61.34354 | 73.38902 | 206 ft | 14 kts | 5° |
| 2026-04-21 13:48 | 61.34385 | 73.38974 | 201 ft | 0 kts | 89° |
| 2026-04-21 13:48 | 61.34385 | 73.38977 | 198 ft | 0 kts | 89° |
| 2026-04-21 13:48 | 61.34385 | 73.39070 | 208 ft | 26 kts | 90° |
| 2026-04-21 13:48 | 61.34388 | 73.39826 | 212 ft | 80 kts | 89° |
| 2026-04-21 13:49 | 61.34394 | 73.41391 | 216 ft | 135 kts | 89° |
| 2026-04-21 13:49 | 61.34402 | 73.43538 | 695 ft | 149 kts | 89° |
| 2026-04-21 13:49 | 61.34410 | 73.45660 | 1548 ft | 148 kts | 95° |
| 2026-04-21 13:49 | 61.33890 | 73.47452 | 2150 ft | 156 kts | 155° |
| 2026-04-21 13:50 | 61.32828 | 73.47981 | 2891 ft | 162 kts | 166° |
| 2026-04-21 13:50 | 61.32059 | 73.48249 | 3235 ft | 174 kts | 164° |
| 2026-04-21 13:50 | 61.30863 | 73.49087 | 3842 ft | 185 kts | 152° |
| 2026-04-21 13:50 | 61.29702 | 73.50475 | 4365 ft | 208 kts | 147° |
| 2026-04-21 13:51 | 61.28421 | 73.52380 | 4536 ft | 246 kts | 140° |
| 2026-04-21 13:51 | 61.27072 | 73.54724 | 5412 ft | 250 kts | 140° |
| 2026-04-21 13:51 | 61.25770 | 73.56887 | 6932 ft | 232 kts | 142° |
| 2026-04-21 13:51 | 61.24467 | 73.58885 | 7866 ft | 239 kts | 144° |
| 2026-04-21 13:52 | 61.23025 | 73.60966 | 8241 ft | 266 kts | 146° |
| 2026-04-21 13:52 | 61.21442 | 73.63151 | 9029 ft | 274 kts | 147° |
| 2026-04-21 13:52 | 61.19816 | 73.65092 | 10249 ft | 268 kts | 158° |
| 2026-04-21 13:52 | 61.17980 | 73.66033 | 10816 ft | 284 kts | 179° |
| 2026-04-21 13:53 | 61.15940 | 73.65607 | 11200 ft | 303 kts | 195° |
| 2026-04-21 13:53 | 61.13945 | 73.64446 | 12443 ft | 289 kts | 199° |
| 2026-04-21 13:53 | 61.12043 | 73.63395 | 13796 ft | 280 kts | 197° |
| 2026-04-21 13:53 | 61.10100 | 73.62553 | 14390 ft | 294 kts | 195° |
| 2026-04-21 13:54 | 61.08035 | 73.61832 | 14729 ft | 314 kts | 193° |
| 2026-04-21 13:54 | 61.05819 | 73.61207 | 15491 ft | 318 kts | 192° |
| 2026-04-21 13:54 | 61.03658 | 73.60752 | 16450 ft | 316 kts | 192° |
| 2026-04-21 13:54 | 61.01446 | 73.60422 | 17189 ft | 322 kts | 191° |
| 2026-04-21 13:55 | 60.99177 | 73.60183 | 17834 ft | 331 kts | 191° |
| 2026-04-21 13:55 | 60.96867 | 73.59892 | 18550 ft | 334 kts | 193° |
| 2026-04-21 13:55 | 60.94547 | 73.59408 | 19212 ft | 336 kts | 196° |
| 2026-04-21 13:55 | 60.92229 | 73.58775 | 19907 ft | 337 kts | 198° |
| 2026-04-21 13:56 | 60.89901 | 73.58078 | 20591 ft | 339 kts | 198° |
| 2026-04-21 13:56 | 60.87550 | 73.57372 | 21267 ft | 342 kts | 198° |
| 2026-04-21 13:56 | 60.85185 | 73.56678 | 21933 ft | 346 kts | 198° |
| 2026-04-21 13:56 | 60.82788 | 73.55989 | 22592 ft | 349 kts | 198° |
| 2026-04-21 13:57 | 60.80375 | 73.55302 | 23244 ft | 352 kts | 198° |
| 2026-04-21 13:57 | 60.77930 | 73.54607 | 23846 ft | 356 kts | 198° |
| 2026-04-21 13:57 | 60.75462 | 73.53905 | 24366 ft | 359 kts | 198° |
| 2026-04-21 13:57 | 60.72987 | 73.53201 | 24927 ft | 361 kts | 198° |
| 2026-04-21 13:58 | 60.70495 | 73.52493 | 25503 ft | 362 kts | 199° |
| 2026-04-21 13:58 | 60.67986 | 73.51777 | 26040 ft | 365 kts | 199° |
| 2026-04-21 13:58 | 60.65463 | 73.51057 | 26559 ft | 368 kts | 199° |
| 2026-04-21 13:58 | 60.62910 | 73.50361 | 27039 ft | 373 kts | 198° |
| 2026-04-21 13:59 | 60.60345 | 73.49755 | 27517 ft | 378 kts | 197° |
| 2026-04-21 13:59 | 60.57698 | 73.49325 | 27843 ft | 393 kts | 192° |
| 2026-04-21 13:59 | 60.54872 | 73.49588 | 28026 ft | 415 kts | 183° |
| 2026-04-21 13:59 | 60.52018 | 73.50537 | 28890 ft | 411 kts | 180° |
| 2026-04-21 14:00 | 60.49271 | 73.51533 | 30120 ft | 390 kts | 184° |
| 2026-04-21 14:00 | 60.46606 | 73.51954 | 30531 ft | 385 kts | 191° |
| 2026-04-21 14:00 | 60.43866 | 73.51836 | 30218 ft | 403 kts | 195° |
| 2026-04-21 14:00 | 60.41005 | 73.51441 | 30021 ft | 422 kts | 194° |
| 2026-04-21 14:01 | 60.38014 | 73.51326 | 30300 ft | 438 kts | 187° |
| 2026-04-21 14:01 | 60.34997 | 73.52013 | 31315 ft | 431 kts | 180° |
| 2026-04-21 14:01 | 60.32123 | 73.53125 | 32585 ft | 411 kts | 179° |
| 2026-04-21 14:01 | 60.29342 | 73.53945 | 33260 ft | 400 kts | 185° |
| 2026-04-21 14:02 | 60.26529 | 73.54128 | 33044 ft | 412 kts | 190° |
| 2026-04-21 14:02 | 60.23619 | 73.53937 | 32796 ft | 421 kts | 192° |
| 2026-04-21 14:03 | 60.14704 | 73.53974 | 33111 ft | 443 kts | 182° |
| 2026-04-21 14:03 | 60.11618 | 73.54886 | 33314 ft | 453 kts | 178° |
| 2026-04-21 14:03 | 60.08514 | 73.56004 | 33740 ft | 452 kts | 179° |
| 2026-04-21 14:03 | 60.05447 | 73.56691 | 34347 ft | 440 kts | 185° |
| 2026-04-21 14:04 | 60.02376 | 73.56738 | 34512 ft | 441 kts | 189° |
| 2026-04-21 14:04 | 59.96201 | 73.56115 | 34525 ft | 447 kts | 189° |
| 2026-04-21 14:04 | 59.93065 | 73.56315 | 34410 ft | 451 kts | 182° |
| 2026-04-21 14:05 | 59.89953 | 73.57161 | 34358 ft | 452 kts | 177° |
| 2026-04-21 14:05 | 59.83751 | 73.59122 | 34461 ft | 447 kts | 184° |
| 2026-04-21 14:06 | 59.77566 | 73.59004 | 34485 ft | 442 kts | 191° |
| 2026-04-21 14:06 | 59.71452 | 73.58689 | 34403 ft | 447 kts | 184° |
| 2026-04-21 14:07 | 59.65252 | 73.60376 | 34374 ft | 451 kts | 177° |
| 2026-04-21 14:07 | 59.59074 | 73.61794 | 34487 ft | 443 kts | 187° |
| 2026-04-21 14:08 | 59.52953 | 73.61373 | 34505 ft | 439 kts | 191° |
| 2026-04-21 14:08 | 59.46800 | 73.61480 | 34403 ft | 447 kts | 181° |
| 2026-04-21 14:09 | 59.40632 | 73.63460 | 34416 ft | 449 kts | 178° |
| 2026-04-21 14:09 | 59.34473 | 73.64325 | 34525 ft | 442 kts | 189° |
| 2026-04-21 14:10 | 59.28359 | 73.63770 | 34541 ft | 439 kts | 190° |
| 2026-04-21 14:10 | 59.22189 | 73.64421 | 34418 ft | 448 kts | 179° |
| 2026-04-21 14:11 | 59.16044 | 73.66472 | 34426 ft | 445 kts | 181° |
| 2026-04-21 14:11 | 59.12974 | 73.66994 | 34274 ft | 438 kts | 185° |
| 2026-04-21 14:11 | 59.09971 | 73.67261 | 33919 ft | 428 kts | 186° |
| 2026-04-21 14:11 | 59.07031 | 73.67671 | 33152 ft | 434 kts | 180° |
| 2026-04-21 14:12 | 59.04037 | 73.69134 | 32008 ft | 455 kts | 168° |
| 2026-04-21 14:12 | 59.01119 | 73.71303 | 31851 ft | 438 kts | 168° |
| 2026-04-21 14:12 | 58.98268 | 73.72861 | 32080 ft | 418 kts | 180° |
| 2026-04-21 14:12 | 58.95396 | 73.73141 | 32178 ft | 413 kts | 192° |
| 2026-04-21 14:13 | 58.92551 | 73.72541 | 32315 ft | 411 kts | 198° |
| 2026-04-21 14:13 | 58.89697 | 73.71802 | 32440 ft | 416 kts | 193° |
| 2026-04-21 14:13 | 58.86773 | 73.71828 | 32445 ft | 429 kts | 181° |
| 2026-04-21 14:13 | 58.83841 | 73.72797 | 32723 ft | 424 kts | 178° |
| 2026-04-21 14:14 | 58.80956 | 73.73576 | 33162 ft | 415 kts | 186° |
| 2026-04-21 14:14 | 58.75177 | 73.73351 | 32986 ft | 410 kts | 197° |
| 2026-04-21 14:14 | 58.72386 | 73.72510 | 32850 ft | 404 kts | 197° |
| 2026-04-21 14:15 | 58.69541 | 73.72190 | 32451 ft | 414 kts | 187° |
| 2026-04-21 14:15 | 58.66653 | 73.72715 | 32029 ft | 421 kts | 180° |
| 2026-04-21 14:15 | 58.63760 | 73.73717 | 32025 ft | 422 kts | 179° |
| 2026-04-21 14:15 | 58.60878 | 73.74507 | 32356 ft | 416 kts | 185° |
| 2026-04-21 14:16 | 58.57993 | 73.74661 | 32652 ft | 416 kts | 188° |
| 2026-04-21 14:16 | 58.55076 | 73.74632 | 31477 ft | 421 kts | 182° |
| 2026-04-21 14:16 | 58.52151 | 73.74441 | 31742 ft | 422 kts | 182° |
| 2026-04-21 14:16 | 58.49248 | 73.74246 | 32008 ft | 424 kts | 182° |
| 2026-04-21 14:17 | 58.46302 | 73.74137 | 32343 ft | 422 kts | 180° |
| 2026-04-21 14:17 | 58.43373 | 73.74345 | 32722 ft | 422 kts | 175° |
| 2026-04-21 14:17 | 58.40454 | 73.74970 | 33052 ft | 423 kts | 173° |
| 2026-04-21 14:18 | 58.34556 | 73.76444 | 34447 ft | 434 kts | 176° |
| 2026-04-21 14:18 | 58.31627 | 73.77657 | 34211 ft | 426 kts | 179° |
| 2026-04-21 14:18 | 58.28741 | 73.78245 | 33905 ft | 408 kts | 190° |
| 2026-04-21 14:18 | 58.25972 | 73.77716 | 33306 ft | 394 kts | 201° |